sensor_id;sensor_type;location;lat;lon;timestamp;P1;durP1;ratioP1;P2;durP2;ratioP2
35128;SDS011;21301;43.626;10.580;2023-09-12T00:01:30;9.60;;;7.38;;
35128;SDS011;21301;43.626;10.580;2023-09-12T00:04:00;9.52;;;6.95;;
35128;SDS011;21301;43.626;10.580;2023-09-12T00:06:26;11.27;;;7.85;;
35128;SDS011;21301;43.626;10.580;2023-09-12T00:08:51;9.52;;;7.18;;
35128;SDS011;21301;43.626;10.580;2023-09-12T00:11:17;10.63;;;7.30;;
35128;SDS011;21301;43.626;10.580;2023-09-12T00:13:43;10.30;;;7.05;;
35128;SDS011;21301;43.626;10.580;2023-09-12T00:16:10;9.10;;;7.38;;
35128;SDS011;21301;43.626;10.580;2023-09-12T00:18:39;8.43;;;6.68;;
35128;SDS011;21301;43.626;10.580;2023-09-12T00:21:05;7.88;;;6.30;;
35128;SDS011;21301;43.626;10.580;2023-09-12T00:23:30;9.35;;;6.25;;
35128;SDS011;21301;43.626;10.580;2023-09-12T00:25:57;12.38;;;6.82;;
35128;SDS011;21301;43.626;10.580;2023-09-12T00:28:22;11.95;;;7.28;;
35128;SDS011;21301;43.626;10.580;2023-09-12T00:30:48;10.48;;;6.45;;
35128;SDS011;21301;43.626;10.580;2023-09-12T00:33:15;8.70;;;6.47;;
35128;SDS011;21301;43.626;10.580;2023-09-12T00:35:40;9.18;;;6.15;;
35128;SDS011;21301;43.626;10.580;2023-09-12T00:38:06;9.93;;;7.05;;
35128;SDS011;21301;43.626;10.580;2023-09-12T00:40:33;9.90;;;6.97;;
35128;SDS011;21301;43.626;10.580;2023-09-12T00:42:59;9.02;;;6.65;;
35128;SDS011;21301;43.626;10.580;2023-09-12T00:45:25;9.52;;;6.80;;
35128;SDS011;21301;43.626;10.580;2023-09-12T00:47:51;9.23;;;6.88;;
35128;SDS011;21301;43.626;10.580;2023-09-12T00:50:18;9.05;;;6.80;;
35128;SDS011;21301;43.626;10.580;2023-09-12T00:52:47;8.95;;;6.88;;
35128;SDS011;21301;43.626;10.580;2023-09-12T00:55:14;12.48;;;6.15;;
35128;SDS011;21301;43.626;10.580;2023-09-12T00:57:40;13.07;;;6.57;;
35128;SDS011;21301;43.626;10.580;2023-09-12T01:00:07;9.77;;;6.72;;
35128;SDS011;21301;43.626;10.580;2023-09-12T01:02:43;11.30;;;6.53;;
35128;SDS011;21301;43.626;10.580;2023-09-12T01:05:11;10.98;;;7.35;;
35128;SDS011;21301;43.626;10.580;2023-09-12T01:07:39;12.57;;;7.10;;
35128;SDS011;21301;43.626;10.580;2023-09-12T01:10:07;9.07;;;6.50;;
35128;SDS011;21301;43.626;10.580;2023-09-12T01:12:34;11.05;;;6.53;;
35128;SDS011;21301;43.626;10.580;2023-09-12T01:14:59;7.60;;;6.03;;
35128;SDS011;21301;43.626;10.580;2023-09-12T01:17:25;11.50;;;7.45;;
35128;SDS011;21301;43.626;10.580;2023-09-12T01:19:52;8.27;;;6.72;;
35128;SDS011;21301;43.626;10.580;2023-09-12T01:27:57;11.18;;;6.10;;
35128;SDS011;21301;43.626;10.580;2023-09-12T01:30:27;10.25;;;7.40;;
35128;SDS011;21301;43.626;10.580;2023-09-12T01:32:57;9.30;;;6.93;;
35128;SDS011;21301;43.626;10.580;2023-09-12T01:35:22;8.60;;;6.35;;
35128;SDS011;21301;43.626;10.580;2023-09-12T01:37:48;12.70;;;8.07;;
35128;SDS011;21301;43.626;10.580;2023-09-12T01:40:14;8.35;;;6.63;;
35128;SDS011;21301;43.626;10.580;2023-09-12T01:42:44;8.52;;;6.25;;
35128;SDS011;21301;43.626;10.580;2023-09-12T01:45:16;11.40;;;7.57;;
35128;SDS011;21301;43.626;10.580;2023-09-12T01:47:43;11.57;;;7.30;;
35128;SDS011;21301;43.626;10.580;2023-09-12T01:50:10;9.93;;;7.55;;
35128;SDS011;21301;43.626;10.580;2023-09-12T01:52:38;11.38;;;6.80;;
35128;SDS011;21301;43.626;10.580;2023-09-12T01:55:06;11.10;;;7.10;;
35128;SDS011;21301;43.626;10.580;2023-09-12T01:57:34;11.05;;;7.30;;
35128;SDS011;21301;43.626;10.580;2023-09-12T02:00:04;9.15;;;6.22;;
35128;SDS011;21301;43.626;10.580;2023-09-12T02:02:30;13.93;;;7.25;;
35128;SDS011;21301;43.626;10.580;2023-09-12T02:07:38;11.48;;;7.18;;
35128;SDS011;21301;43.626;10.580;2023-09-12T02:10:05;11.23;;;7.30;;
35128;SDS011;21301;43.626;10.580;2023-09-12T02:12:31;10.98;;;7.32;;
35128;SDS011;21301;43.626;10.580;2023-09-12T02:14:57;11.85;;;6.88;;
35128;SDS011;21301;43.626;10.580;2023-09-12T02:17:23;10.65;;;7.72;;
35128;SDS011;21301;43.626;10.580;2023-09-12T02:19:49;9.10;;;6.93;;
35128;SDS011;21301;43.626;10.580;2023-09-12T02:22:15;11.13;;;8.15;;
35128;SDS011;21301;43.626;10.580;2023-09-12T02:24:41;11.73;;;7.28;;
35128;SDS011;21301;43.626;10.580;2023-09-12T02:27:06;10.77;;;7.72;;
35128;SDS011;21301;43.626;10.580;2023-09-12T02:29:32;9.90;;;7.38;;
35128;SDS011;21301;43.626;10.580;2023-09-12T02:31:59;9.82;;;7.05;;
35128;SDS011;21301;43.626;10.580;2023-09-12T02:34:24;9.48;;;7.13;;
35128;SDS011;21301;43.626;10.580;2023-09-12T02:36:50;13.63;;;7.40;;
35128;SDS011;21301;43.626;10.580;2023-09-12T02:39:16;10.60;;;7.25;;
35128;SDS011;21301;43.626;10.580;2023-09-12T02:41:42;10.38;;;7.55;;
35128;SDS011;21301;43.626;10.580;2023-09-12T02:44:08;12.27;;;7.40;;
35128;SDS011;21301;43.626;10.580;2023-09-12T02:46:34;10.10;;;7.63;;
35128;SDS011;21301;43.626;10.580;2023-09-12T02:49:01;11.40;;;7.32;;
35128;SDS011;21301;43.626;10.580;2023-09-12T02:51:27;10.98;;;6.90;;
35128;SDS011;21301;43.626;10.580;2023-09-12T02:53:54;10.88;;;7.07;;
35128;SDS011;21301;43.626;10.580;2023-09-12T02:56:19;10.15;;;7.28;;
35128;SDS011;21301;43.626;10.580;2023-09-12T02:58:46;9.95;;;7.00;;
35128;SDS011;21301;43.626;10.580;2023-09-12T03:01:15;10.68;;;7.38;;
35128;SDS011;21301;43.626;10.580;2023-09-12T03:03:42;10.27;;;7.25;;
35128;SDS011;21301;43.626;10.580;2023-09-12T03:06:09;12.90;;;7.68;;
35128;SDS011;21301;43.626;10.580;2023-09-12T03:08:35;9.20;;;6.80;;
35128;SDS011;21301;43.626;10.580;2023-09-12T03:11:01;10.15;;;7.47;;
35128;SDS011;21301;43.626;10.580;2023-09-12T03:13:29;12.13;;;7.72;;
35128;SDS011;21301;43.626;10.580;2023-09-12T03:15:54;9.80;;;7.10;;
35128;SDS011;21301;43.626;10.580;2023-09-12T03:18:20;9.15;;;7.18;;
35128;SDS011;21301;43.626;10.580;2023-09-12T03:20:46;11.30;;;7.13;;
35128;SDS011;21301;43.626;10.580;2023-09-12T03:23:12;9.98;;;6.68;;
35128;SDS011;21301;43.626;10.580;2023-09-12T03:25:38;11.70;;;7.70;;
35128;SDS011;21301;43.626;10.580;2023-09-12T03:28:04;9.52;;;6.97;;
35128;SDS011;21301;43.626;10.580;2023-09-12T03:30:35;9.25;;;6.93;;
35128;SDS011;21301;43.626;10.580;2023-09-12T03:33:02;10.93;;;7.38;;
35128;SDS011;21301;43.626;10.580;2023-09-12T03:35:28;11.13;;;7.05;;
35128;SDS011;21301;43.626;10.580;2023-09-12T03:37:55;11.18;;;7.57;;
35128;SDS011;21301;43.626;10.580;2023-09-12T03:40:21;10.57;;;7.35;;
35128;SDS011;21301;43.626;10.580;2023-09-12T03:42:46;12.90;;;8.00;;
35128;SDS011;21301;43.626;10.580;2023-09-12T03:45:12;10.02;;;7.32;;
35128;SDS011;21301;43.626;10.580;2023-09-12T03:47:38;11.07;;;7.78;;
35128;SDS011;21301;43.626;10.580;2023-09-12T03:50:04;13.27;;;7.68;;
35128;SDS011;21301;43.626;10.580;2023-09-12T03:52:31;10.73;;;7.80;;
35128;SDS011;21301;43.626;10.580;2023-09-12T03:54:56;11.85;;;7.82;;
35128;SDS011;21301;43.626;10.580;2023-09-12T03:57:22;13.60;;;7.40;;
35128;SDS011;21301;43.626;10.580;2023-09-12T03:59:48;16.98;;;7.75;;
35128;SDS011;21301;43.626;10.580;2023-09-12T04:02:14;15.60;;;7.97;;
35128;SDS011;21301;43.626;10.580;2023-09-12T04:04:40;11.38;;;7.55;;
35128;SDS011;21301;43.626;10.580;2023-09-12T04:07:05;12.40;;;8.45;;
35128;SDS011;21301;43.626;10.580;2023-09-12T04:09:31;13.30;;;7.72;;
35128;SDS011;21301;43.626;10.580;2023-09-12T04:11:58;10.77;;;7.78;;
35128;SDS011;21301;43.626;10.580;2023-09-12T04:14:24;12.50;;;8.38;;
35128;SDS011;21301;43.626;10.580;2023-09-12T04:16:50;12.35;;;7.68;;
35128;SDS011;21301;43.626;10.580;2023-09-12T04:19:16;13.30;;;7.38;;
35128;SDS011;21301;43.626;10.580;2023-09-12T04:21:41;8.93;;;7.47;;
35128;SDS011;21301;43.626;10.580;2023-09-12T04:24:07;11.57;;;7.90;;
35128;SDS011;21301;43.626;10.580;2023-09-12T04:26:34;10.52;;;8.13;;
35128;SDS011;21301;43.626;10.580;2023-09-12T04:29:00;10.82;;;7.93;;
35128;SDS011;21301;43.626;10.580;2023-09-12T04:31:26;13.35;;;8.38;;
35128;SDS011;21301;43.626;10.580;2023-09-12T04:33:52;10.95;;;8.10;;
35128;SDS011;21301;43.626;10.580;2023-09-12T04:36:18;11.57;;;8.63;;
35128;SDS011;21301;43.626;10.580;2023-09-12T04:38:44;11.20;;;7.90;;
35128;SDS011;21301;43.626;10.580;2023-09-12T04:41:11;10.38;;;7.60;;
35128;SDS011;21301;43.626;10.580;2023-09-12T04:43:40;11.68;;;8.57;;
35128;SDS011;21301;43.626;10.580;2023-09-12T04:46:06;10.77;;;8.45;;
35128;SDS011;21301;43.626;10.580;2023-09-12T04:48:32;17.23;;;7.95;;
35128;SDS011;21301;43.626;10.580;2023-09-12T04:50:59;12.55;;;8.93;;
35128;SDS011;21301;43.626;10.580;2023-09-12T04:53:25;12.15;;;7.97;;
35128;SDS011;21301;43.626;10.580;2023-09-12T04:55:54;13.13;;;9.40;;
35128;SDS011;21301;43.626;10.580;2023-09-12T04:58:19;15.48;;;7.70;;
35128;SDS011;21301;43.626;10.580;2023-09-12T05:00:45;11.18;;;8.32;;
35128;SDS011;21301;43.626;10.580;2023-09-12T05:03:11;11.13;;;7.70;;
35128;SDS011;21301;43.626;10.580;2023-09-12T05:05:37;17.35;;;8.98;;
35128;SDS011;21301;43.626;10.580;2023-09-12T05:08:03;9.80;;;7.70;;
35128;SDS011;21301;43.626;10.580;2023-09-12T05:10:29;11.63;;;7.57;;
35128;SDS011;21301;43.626;10.580;2023-09-12T05:12:55;10.68;;;7.65;;
35128;SDS011;21301;43.626;10.580;2023-09-12T05:15:21;17.08;;;8.40;;
35128;SDS011;21301;43.626;10.580;2023-09-12T05:17:47;17.67;;;8.77;;
35128;SDS011;21301;43.626;10.580;2023-09-12T05:20:13;15.88;;;8.50;;
35128;SDS011;21301;43.626;10.580;2023-09-12T05:22:41;14.32;;;9.73;;
35128;SDS011;21301;43.626;10.580;2023-09-12T05:25:07;13.77;;;9.50;;
35128;SDS011;21301;43.626;10.580;2023-09-12T05:27:33;12.73;;;9.88;;
35128;SDS011;21301;43.626;10.580;2023-09-12T05:30:00;16.30;;;10.40;;
35128;SDS011;21301;43.626;10.580;2023-09-12T05:32:27;13.43;;;9.63;;
35128;SDS011;21301;43.626;10.580;2023-09-12T05:34:58;14.73;;;10.48;;
35128;SDS011;21301;43.626;10.580;2023-09-12T05:37:23;12.98;;;9.30;;
35128;SDS011;21301;43.626;10.580;2023-09-12T05:39:49;13.80;;;8.90;;
35128;SDS011;21301;43.626;10.580;2023-09-12T05:42:15;12.18;;;8.48;;
35128;SDS011;21301;43.626;10.580;2023-09-12T05:44:49;11.70;;;8.93;;
35128;SDS011;21301;43.626;10.580;2023-09-12T05:47:19;14.07;;;7.78;;
35128;SDS011;21301;43.626;10.580;2023-09-12T05:49:45;12.63;;;8.60;;
35128;SDS011;21301;43.626;10.580;2023-09-12T05:52:11;12.10;;;9.13;;
35128;SDS011;21301;43.626;10.580;2023-09-12T05:54:38;17.42;;;8.27;;
35128;SDS011;21301;43.626;10.580;2023-09-12T05:57:06;11.05;;;7.85;;
35128;SDS011;21301;43.626;10.580;2023-09-12T05:59:32;15.75;;;8.63;;
35128;SDS011;21301;43.626;10.580;2023-09-12T06:02:01;12.07;;;6.82;;
35128;SDS011;21301;43.626;10.580;2023-09-12T06:04:26;11.88;;;7.68;;
35128;SDS011;21301;43.626;10.580;2023-09-12T06:06:52;12.30;;;8.25;;
35128;SDS011;21301;43.626;10.580;2023-09-12T06:09:18;13.05;;;8.75;;
35128;SDS011;21301;43.626;10.580;2023-09-12T06:11:44;12.43;;;9.18;;
35128;SDS011;21301;43.626;10.580;2023-09-12T06:14:10;17.55;;;10.18;;
35128;SDS011;21301;43.626;10.580;2023-09-12T06:16:35;12.13;;;8.38;;
35128;SDS011;21301;43.626;10.580;2023-09-12T06:19:01;12.68;;;9.52;;
35128;SDS011;21301;43.626;10.580;2023-09-12T06:21:27;14.48;;;9.70;;
35128;SDS011;21301;43.626;10.580;2023-09-12T06:24:09;12.82;;;10.27;;
35128;SDS011;21301;43.626;10.580;2023-09-12T06:26:39;13.73;;;11.00;;
35128;SDS011;21301;43.626;10.580;2023-09-12T06:29:06;18.67;;;11.25;;
35128;SDS011;21301;43.626;10.580;2023-09-12T06:31:32;20.02;;;10.50;;
35128;SDS011;21301;43.626;10.580;2023-09-12T06:33:58;12.70;;;10.20;;
35128;SDS011;21301;43.626;10.580;2023-09-12T06:36:24;15.32;;;10.73;;
35128;SDS011;21301;43.626;10.580;2023-09-12T06:38:50;14.45;;;10.40;;
35128;SDS011;21301;43.626;10.580;2023-09-12T06:41:19;15.52;;;11.25;;
35128;SDS011;21301;43.626;10.580;2023-09-12T06:43:45;15.82;;;11.57;;
35128;SDS011;21301;43.626;10.580;2023-09-12T06:46:11;19.60;;;11.82;;
35128;SDS011;21301;43.626;10.580;2023-09-12T06:48:37;15.13;;;11.98;;
35128;SDS011;21301;43.626;10.580;2023-09-12T06:51:06;13.85;;;11.45;;
35128;SDS011;21301;43.626;10.580;2023-09-12T06:53:33;14.65;;;11.43;;
35128;SDS011;21301;43.626;10.580;2023-09-12T06:55:59;16.25;;;11.30;;
35128;SDS011;21301;43.626;10.580;2023-09-12T06:58:25;13.02;;;10.60;;
35128;SDS011;21301;43.626;10.580;2023-09-12T07:00:51;14.27;;;9.93;;
35128;SDS011;21301;43.626;10.580;2023-09-12T07:03:17;13.90;;;10.63;;
35128;SDS011;21301;43.626;10.580;2023-09-12T07:05:43;13.50;;;9.90;;
35128;SDS011;21301;43.626;10.580;2023-09-12T07:08:09;14.05;;;10.25;;
35128;SDS011;21301;43.626;10.580;2023-09-12T07:10:35;14.05;;;9.52;;
35128;SDS011;21301;43.626;10.580;2023-09-12T07:13:01;12.93;;;9.38;;
35128;SDS011;21301;43.626;10.580;2023-09-12T07:15:27;16.45;;;9.43;;
35128;SDS011;21301;43.626;10.580;2023-09-12T07:17:53;12.88;;;8.45;;
35128;SDS011;21301;43.626;10.580;2023-09-12T07:20:19;12.25;;;7.72;;
35128;SDS011;21301;43.626;10.580;2023-09-12T07:22:45;9.80;;;7.53;;
35128;SDS011;21301;43.626;10.580;2023-09-12T07:25:12;12.15;;;8.48;;
35128;SDS011;21301;43.626;10.580;2023-09-12T07:27:39;10.80;;;7.82;;
35128;SDS011;21301;43.626;10.580;2023-09-12T07:30:05;11.15;;;7.88;;
35128;SDS011;21301;43.626;10.580;2023-09-12T07:32:32;13.10;;;8.30;;
35128;SDS011;21301;43.626;10.580;2023-09-12T07:34:58;16.17;;;8.40;;
35128;SDS011;21301;43.626;10.580;2023-09-12T07:37:27;14.27;;;7.90;;
35128;SDS011;21301;43.626;10.580;2023-09-12T07:39:53;11.52;;;8.13;;
35128;SDS011;21301;43.626;10.580;2023-09-12T07:42:21;10.88;;;7.78;;
35128;SDS011;21301;43.626;10.580;2023-09-12T07:44:48;18.25;;;6.88;;
35128;SDS011;21301;43.626;10.580;2023-09-12T07:47:13;10.45;;;7.85;;
35128;SDS011;21301;43.626;10.580;2023-09-12T07:49:39;13.73;;;7.82;;
35128;SDS011;21301;43.626;10.580;2023-09-12T07:52:05;11.27;;;8.05;;
35128;SDS011;21301;43.626;10.580;2023-09-12T07:54:32;9.80;;;7.05;;
35128;SDS011;21301;43.626;10.580;2023-09-12T07:56:57;9.93;;;7.72;;
35128;SDS011;21301;43.626;10.580;2023-09-12T07:59:24;12.38;;;7.97;;
35128;SDS011;21301;43.626;10.580;2023-09-12T08:01:50;12.98;;;6.88;;
35128;SDS011;21301;43.626;10.580;2023-09-12T08:10:26;12.60;;;7.07;;
35128;SDS011;21301;43.626;10.580;2023-09-12T08:12:52;10.77;;;7.00;;
35128;SDS011;21301;43.626;10.580;2023-09-12T08:15:19;11.73;;;7.78;;
35128;SDS011;21301;43.626;10.580;2023-09-12T08:17:59;10.38;;;7.75;;
35128;SDS011;21301;43.626;10.580;2023-09-12T08:20:25;10.27;;;6.90;;
35128;SDS011;21301;43.626;10.580;2023-09-12T08:22:51;8.45;;;5.75;;
35128;SDS011;21301;43.626;10.580;2023-09-12T08:25:17;14.73;;;7.82;;
35128;SDS011;21301;43.626;10.580;2023-09-12T08:27:43;14.77;;;6.70;;
35128;SDS011;21301;43.626;10.580;2023-09-12T08:30:09;14.40;;;8.27;;
35128;SDS011;21301;43.626;10.580;2023-09-12T08:39:25;9.90;;;7.28;;
35128;SDS011;21301;43.626;10.580;2023-09-12T08:41:52;10.82;;;7.15;;
35128;SDS011;21301;43.626;10.580;2023-09-12T08:44:19;14.45;;;6.13;;
35128;SDS011;21301;43.626;10.580;2023-09-12T08:46:46;11.13;;;7.13;;
35128;SDS011;21301;43.626;10.580;2023-09-12T08:49:12;9.20;;;5.43;;
35128;SDS011;21301;43.626;10.580;2023-09-12T08:51:38;9.95;;;6.47;;
35128;SDS011;21301;43.626;10.580;2023-09-12T08:54:04;10.20;;;6.82;;
35128;SDS011;21301;43.626;10.580;2023-09-12T08:56:31;9.00;;;6.38;;
35128;SDS011;21301;43.626;10.580;2023-09-12T08:58:58;10.20;;;6.13;;
35128;SDS011;21301;43.626;10.580;2023-09-12T09:01:26;9.15;;;5.82;;
35128;SDS011;21301;43.626;10.580;2023-09-12T09:03:55;14.38;;;7.70;;
35128;SDS011;21301;43.626;10.580;2023-09-12T09:06:21;7.68;;;4.85;;
35128;SDS011;21301;43.626;10.580;2023-09-12T09:08:48;8.30;;;5.10;;
35128;SDS011;21301;43.626;10.580;2023-09-12T09:11:17;8.55;;;5.47;;
35128;SDS011;21301;43.626;10.580;2023-09-12T09:13:43;7.63;;;4.90;;
35128;SDS011;21301;43.626;10.580;2023-09-12T09:16:12;9.40;;;5.45;;
35128;SDS011;21301;43.626;10.580;2023-09-12T09:21:28;6.70;;;4.45;;
35128;SDS011;21301;43.626;10.580;2023-09-12T09:23:57;7.47;;;5.57;;
35128;SDS011;21301;43.626;10.580;2023-09-12T09:29:08;8.73;;;5.10;;
35128;SDS011;21301;43.626;10.580;2023-09-12T09:31:35;8.98;;;5.13;;
35128;SDS011;21301;43.626;10.580;2023-09-12T09:34:10;10.18;;;5.88;;
35128;SDS011;21301;43.626;10.580;2023-09-12T09:36:40;7.90;;;4.90;;
35128;SDS011;21301;43.626;10.580;2023-09-12T09:39:07;8.43;;;5.40;;
35128;SDS011;21301;43.626;10.580;2023-09-12T09:41:33;8.07;;;5.25;;
35128;SDS011;21301;43.626;10.580;2023-09-12T09:43:59;7.32;;;4.88;;
35128;SDS011;21301;43.626;10.580;2023-09-12T09:46:25;6.07;;;4.63;;
35128;SDS011;21301;43.626;10.580;2023-09-12T10:04:40;13.52;;;4.50;;
35128;SDS011;21301;43.626;10.580;2023-09-12T10:40:27;7.40;;;4.95;;
35128;SDS011;21301;43.626;10.580;2023-09-12T10:42:55;6.65;;;4.82;;
35128;SDS011;21301;43.626;10.580;2023-09-12T10:45:22;11.25;;;5.03;;
35128;SDS011;21301;43.626;10.580;2023-09-12T10:47:48;8.18;;;5.10;;
35128;SDS011;21301;43.626;10.580;2023-09-12T10:50:14;6.68;;;4.53;;
35128;SDS011;21301;43.626;10.580;2023-09-12T10:52:40;6.35;;;4.65;;
35128;SDS011;21301;43.626;10.580;2023-09-12T10:55:07;7.15;;;4.72;;
35128;SDS011;21301;43.626;10.580;2023-09-12T10:57:33;7.32;;;5.25;;
35128;SDS011;21301;43.626;10.580;2023-09-12T11:02:34;8.95;;;5.60;;
35128;SDS011;21301;43.626;10.580;2023-09-12T11:05:02;7.90;;;5.47;;
35128;SDS011;21301;43.626;10.580;2023-09-12T11:12:44;6.57;;;4.45;;
35128;SDS011;21301;43.626;10.580;2023-09-12T11:15:15;7.93;;;5.30;;
35128;SDS011;21301;43.626;10.580;2023-09-12T11:17:41;7.22;;;4.95;;
35128;SDS011;21301;43.626;10.580;2023-09-12T11:20:10;8.20;;;5.32;;
35128;SDS011;21301;43.626;10.580;2023-09-12T11:22:41;7.88;;;5.55;;
35128;SDS011;21301;43.626;10.580;2023-09-12T11:25:16;9.45;;;5.03;;
35128;SDS011;21301;43.626;10.580;2023-09-12T11:28:01;8.30;;;5.90;;
35128;SDS011;21301;43.626;10.580;2023-09-12T11:30:29;7.07;;;5.03;;
35128;SDS011;21301;43.626;10.580;2023-09-12T11:32:58;6.63;;;5.50;;
35128;SDS011;21301;43.626;10.580;2023-09-12T11:35:25;8.65;;;5.43;;
35128;SDS011;21301;43.626;10.580;2023-09-12T11:37:54;11.00;;;6.13;;
35128;SDS011;21301;43.626;10.580;2023-09-12T11:40:25;8.70;;;5.47;;
35128;SDS011;21301;43.626;10.580;2023-09-12T11:43:06;6.75;;;4.93;;
35128;SDS011;21301;43.626;10.580;2023-09-12T11:45:33;8.55;;;5.78;;
35128;SDS011;21301;43.626;10.580;2023-09-12T11:47:59;14.10;;;5.90;;
35128;SDS011;21301;43.626;10.580;2023-09-12T11:50:34;7.93;;;5.63;;
35128;SDS011;21301;43.626;10.580;2023-09-12T11:53:06;8.98;;;5.15;;
35128;SDS011;21301;43.626;10.580;2023-09-12T11:55:34;8.82;;;5.20;;
35128;SDS011;21301;43.626;10.580;2023-09-12T12:01:11;9.98;;;5.22;;
35128;SDS011;21301;43.626;10.580;2023-09-12T12:03:38;14.88;;;5.13;;
35128;SDS011;21301;43.626;10.580;2023-09-12T12:06:04;7.43;;;5.13;;
35128;SDS011;21301;43.626;10.580;2023-09-12T12:08:31;5.93;;;4.20;;
35128;SDS011;21301;43.626;10.580;2023-09-12T12:10:57;7.53;;;4.65;;
35128;SDS011;21301;43.626;10.580;2023-09-12T12:13:23;7.63;;;5.13;;
35128;SDS011;21301;43.626;10.580;2023-09-12T12:15:49;9.25;;;6.05;;
35128;SDS011;21301;43.626;10.580;2023-09-12T12:18:15;7.43;;;4.78;;
35128;SDS011;21301;43.626;10.580;2023-09-12T12:20:41;6.75;;;5.00;;
35128;SDS011;21301;43.626;10.580;2023-09-12T12:23:08;8.98;;;4.85;;
35128;SDS011;21301;43.626;10.580;2023-09-12T12:25:34;7.15;;;5.10;;
35128;SDS011;21301;43.626;10.580;2023-09-12T12:28:03;8.55;;;5.35;;
35128;SDS011;21301;43.626;10.580;2023-09-12T12:30:33;9.75;;;6.03;;
35128;SDS011;21301;43.626;10.580;2023-09-12T12:33:01;7.53;;;5.10;;
35128;SDS011;21301;43.626;10.580;2023-09-12T12:35:31;6.22;;;4.75;;
35128;SDS011;21301;43.626;10.580;2023-09-12T12:37:57;7.20;;;5.03;;
35128;SDS011;21301;43.626;10.580;2023-09-12T12:40:22;7.88;;;5.20;;
35128;SDS011;21301;43.626;10.580;2023-09-12T12:42:48;9.73;;;5.32;;
35128;SDS011;21301;43.626;10.580;2023-09-12T12:45:15;8.07;;;5.30;;
35128;SDS011;21301;43.626;10.580;2023-09-12T12:47:41;7.57;;;5.22;;
35128;SDS011;21301;43.626;10.580;2023-09-12T12:50:10;7.65;;;5.63;;
35128;SDS011;21301;43.626;10.580;2023-09-12T12:52:39;7.93;;;4.90;;
35128;SDS011;21301;43.626;10.580;2023-09-12T12:55:09;9.40;;;5.03;;
35128;SDS011;21301;43.626;10.580;2023-09-12T12:57:40;9.45;;;4.80;;
35128;SDS011;21301;43.626;10.580;2023-09-12T13:00:14;8.20;;;5.13;;
35128;SDS011;21301;43.626;10.580;2023-09-12T13:02:42;6.13;;;4.70;;
35128;SDS011;21301;43.626;10.580;2023-09-12T13:05:24;8.90;;;5.20;;
35128;SDS011;21301;43.626;10.580;2023-09-12T13:07:55;11.85;;;5.30;;
35128;SDS011;21301;43.626;10.580;2023-09-12T13:10:21;7.75;;;5.13;;
35128;SDS011;21301;43.626;10.580;2023-09-12T13:12:48;6.18;;;4.80;;
35128;SDS011;21301;43.626;10.580;2023-09-12T13:15:14;6.72;;;5.35;;
35128;SDS011;21301;43.626;10.580;2023-09-12T13:17:42;8.00;;;5.13;;
35128;SDS011;21301;43.626;10.580;2023-09-12T13:20:08;8.80;;;5.00;;
35128;SDS011;21301;43.626;10.580;2023-09-12T13:22:35;10.27;;;5.25;;
35128;SDS011;21301;43.626;10.580;2023-09-12T13:25:01;6.05;;;4.65;;
35128;SDS011;21301;43.626;10.580;2023-09-12T13:27:27;6.93;;;5.13;;
35128;SDS011;21301;43.626;10.580;2023-09-12T13:29:54;6.53;;;4.53;;
35128;SDS011;21301;43.626;10.580;2023-09-12T13:32:20;9.07;;;5.40;;
35128;SDS011;21301;43.626;10.580;2023-09-12T13:34:48;6.63;;;5.05;;
35128;SDS011;21301;43.626;10.580;2023-09-12T13:37:15;6.57;;;5.07;;
35128;SDS011;21301;43.626;10.580;2023-09-12T13:39:44;6.40;;;4.70;;
35128;SDS011;21301;43.626;10.580;2023-09-12T13:42:14;7.45;;;5.28;;
35128;SDS011;21301;43.626;10.580;2023-09-12T13:44:44;12.63;;;6.53;;
35128;SDS011;21301;43.626;10.580;2023-09-12T13:47:10;7.50;;;5.20;;
35128;SDS011;21301;43.626;10.580;2023-09-12T13:49:35;7.68;;;4.90;;
35128;SDS011;21301;43.626;10.580;2023-09-12T13:52:03;8.35;;;4.72;;
35128;SDS011;21301;43.626;10.580;2023-09-12T13:54:29;10.32;;;5.03;;
35128;SDS011;21301;43.626;10.580;2023-09-12T13:56:55;6.10;;;4.47;;
35128;SDS011;21301;43.626;10.580;2023-09-12T13:59:21;6.57;;;4.47;;
35128;SDS011;21301;43.626;10.580;2023-09-12T14:01:47;6.95;;;4.90;;
35128;SDS011;21301;43.626;10.580;2023-09-12T14:04:13;7.57;;;5.18;;
35128;SDS011;21301;43.626;10.580;2023-09-12T14:06:39;7.38;;;5.63;;
35128;SDS011;21301;43.626;10.580;2023-09-12T14:09:05;11.88;;;6.13;;
35128;SDS011;21301;43.626;10.580;2023-09-12T14:11:31;6.50;;;4.68;;
35128;SDS011;21301;43.626;10.580;2023-09-12T14:13:57;7.53;;;4.47;;
35128;SDS011;21301;43.626;10.580;2023-09-12T14:16:23;10.38;;;4.90;;
35128;SDS011;21301;43.626;10.580;2023-09-12T14:18:48;7.45;;;5.38;;
35128;SDS011;21301;43.626;10.580;2023-09-12T14:21:14;12.02;;;5.13;;
35128;SDS011;21301;43.626;10.580;2023-09-12T14:23:40;8.43;;;5.13;;
35128;SDS011;21301;43.626;10.580;2023-09-12T14:26:06;6.68;;;5.13;;
35128;SDS011;21301;43.626;10.580;2023-09-12T14:28:31;7.32;;;4.68;;
35128;SDS011;21301;43.626;10.580;2023-09-12T14:30:59;7.80;;;4.88;;
35128;SDS011;21301;43.626;10.580;2023-09-12T14:33:26;6.85;;;4.80;;
35128;SDS011;21301;43.626;10.580;2023-09-12T14:35:51;8.15;;;4.78;;
35128;SDS011;21301;43.626;10.580;2023-09-12T14:38:17;8.25;;;4.10;;
35128;SDS011;21301;43.626;10.580;2023-09-12T14:40:43;10.20;;;4.90;;
35128;SDS011;21301;43.626;10.580;2023-09-12T14:43:09;6.93;;;4.88;;
35128;SDS011;21301;43.626;10.580;2023-09-12T14:45:34;7.03;;;4.25;;
35128;SDS011;21301;43.626;10.580;2023-09-12T14:48:00;7.50;;;4.78;;
35128;SDS011;21301;43.626;10.580;2023-09-12T14:50:26;7.22;;;4.93;;
35128;SDS011;21301;43.626;10.580;2023-09-12T14:52:54;7.30;;;4.45;;
35128;SDS011;21301;43.626;10.580;2023-09-12T14:55:22;7.00;;;4.80;;
35128;SDS011;21301;43.626;10.580;2023-09-12T14:57:48;7.80;;;4.75;;
35128;SDS011;21301;43.626;10.580;2023-09-12T15:00:14;6.28;;;4.40;;
35128;SDS011;21301;43.626;10.580;2023-09-12T15:02:40;6.82;;;4.85;;
35128;SDS011;21301;43.626;10.580;2023-09-12T15:05:07;8.18;;;4.60;;
35128;SDS011;21301;43.626;10.580;2023-09-12T15:07:34;7.60;;;4.45;;
35128;SDS011;21301;43.626;10.580;2023-09-12T15:10:02;8.45;;;4.60;;
35128;SDS011;21301;43.626;10.580;2023-09-12T15:12:28;8.60;;;4.50;;
35128;SDS011;21301;43.626;10.580;2023-09-12T15:14:54;7.03;;;4.28;;
35128;SDS011;21301;43.626;10.580;2023-09-12T15:17:21;6.50;;;4.32;;
35128;SDS011;21301;43.626;10.580;2023-09-12T15:19:47;5.53;;;4.10;;
35128;SDS011;21301;43.626;10.580;2023-09-12T15:22:12;8.32;;;4.20;;
35128;SDS011;21301;43.626;10.580;2023-09-12T15:24:40;7.05;;;3.92;;
35128;SDS011;21301;43.626;10.580;2023-09-12T15:27:06;5.78;;;3.78;;
35128;SDS011;21301;43.626;10.580;2023-09-12T15:29:34;8.07;;;4.53;;
35128;SDS011;21301;43.626;10.580;2023-09-12T15:32:00;10.50;;;4.50;;
35128;SDS011;21301;43.626;10.580;2023-09-12T15:34:26;6.35;;;4.18;;
35128;SDS011;21301;43.626;10.580;2023-09-12T15:37:05;7.13;;;4.20;;
35128;SDS011;21301;43.626;10.580;2023-09-12T15:39:33;6.07;;;4.20;;
35128;SDS011;21301;43.626;10.580;2023-09-12T15:41:58;6.32;;;4.32;;
35128;SDS011;21301;43.626;10.580;2023-09-12T15:44:24;8.15;;;4.38;;
35128;SDS011;21301;43.626;10.580;2023-09-12T15:46:51;7.78;;;4.10;;
35128;SDS011;21301;43.626;10.580;2023-09-12T15:49:19;8.65;;;4.05;;
35128;SDS011;21301;43.626;10.580;2023-09-12T15:51:44;6.30;;;4.38;;